Pagina principală
Imagini din satelit Prognoze pe 10 zileClimăVremea marină Cicloane Fulgere AeroporturiÎntrebări Buletin informativ Despre
Vremea : Europa Africa America de Nord America de Sud Asia Australia-Oceania Altele
Limbi Pagina de contact

București-Băneasa, România

Aeroportul Internațional București Băneasa - Aurel Vlaicu

Latitudine: 44-30N, longitudine: 026-08E, elevație: 90 m


METAR: LRBS 012000Z 10004KT 060V140 CAVOK 26/13 Q1013 NOSIG
TAF: LRBS 011700Z 0118/0218 VRB04KT CAVOK

Ora: 23:13 (20:13 UTC)

Observații meteo curente

Raportul a fost făcut în urmă cu 13 de minute, la 20:00 UTC
Vânt 4 kt de la Est, variabil între Est/Nord-est și Sud-est
Temperatură 26°C
Umiditate 45%
Presiune 1013 hPa
Vizibilitate de 10 km sau mai mult
nu există nori sub 1.500 m și nici cumulonimbus

Schimbare unități

Prognoză

Raportul a fost făcut în urmă cu 3 ore și 13 de minute, la 17:00 UTC
Prognoză valabilă de la 01 ora 18 UTC la 02 ora 18 UTC
Vânt 4 kt din direcții variabile
Vizibilitate de 10 km sau mai mult
nu există nori sub 1.500 m și nici cumulonimbus
Informațiile de pe acest site sunt prezentate sub rezerva declinării responsabilității
Vremea : Europa Africa America de Nord America de Sud Asia Australia-Oceania Altele
Imagini din satelit Prognoze pe 10 zileClimăVremea marină Cicloane Fulgere AeroporturiÎntrebări Limbi Pagina de contact Buletin informativ Despre